Time;durP1;ratioP1;P1;durP2;ratioP2;P2;SDS_P1;SDS_P2;PMS_P1;PMS_P2;Temp;Humidity;BMP_temperature;BMP_pressure;BME280_temperature;BME280_humidity;BME280_pressure;Samples;Min_cycle;Max_cycle;Signal;HPM_P1;HPM_P2
2022/11/23 00:01:17;;;;;;;15.85;7.47;;;;;;;7.18;100.00;99572.28;4998958;28;20194;-81
2022/11/23 00:03:44;;;;;;;15.98;6.95;;;;;;;7.21;100.00;99572.06;4997415;28;20390;-81
2022/11/23 00:06:09;;;;;;;14.07;7.00;;;;;;;7.21;100.00;99569.50;4996913;28;20057;-80
2022/11/23 00:08:35;;;;;;;17.45;7.25;;;;;;;7.23;100.00;99570.19;4996870;28;20054;-81
2022/11/23 00:11:00;;;;;;;18.25;6.75;;;;;;;7.19;100.00;99558.50;4996650;28;20026;-81
2022/11/23 00:13:26;;;;;;;16.10;7.00;;;;;;;7.00;100.00;99538.44;4996561;28;20038;-81
2022/11/23 00:15:51;;;;;;;16.65;6.68;;;;;;;6.97;100.00;99536.03;4996451;28;20061;-81
2022/11/23 00:18:17;;;;;;;12.35;6.72;;;;;;;7.21;100.00;99572.06;4996544;28;20042;-81
2022/11/23 00:20:42;;;;;;;20.13;7.00;;;;;;;7.17;100.00;99563.72;4994946;28;20098;-81
2022/11/23 00:23:08;;;;;;;19.48;6.72;;;;;;;7.23;100.00;99584.78;4996427;28;20027;-82
2022/11/23 00:25:34;;;;;;;13.65;6.57;;;;;;;7.23;100.00;99577.91;4996120;28;20153;-81
2022/11/23 00:27:59;;;;;;;17.15;6.57;;;;;;;7.25;100.00;99583.75;4996298;28;20113;-81
2022/11/23 00:30:24;;;;;;;17.67;6.00;;;;;;;7.26;100.00;99582.00;4996174;28;20480;-81
2022/11/23 00:32:50;;;;;;;16.52;5.22;;;;;;;7.19;100.00;99569.59;4996214;28;20027;-81
2022/11/23 00:35:15;;;;;;;17.05;5.28;;;;;;;7.27;100.00;99587.03;5011233;28;20034;-80
2022/11/23 00:37:40;;;;;;;14.38;5.70;;;;;;;7.28;100.00;99590.44;4996171;28;20033;-81
2022/11/23 00:40:06;;;;;;;14.55;5.25;;;;;;;7.28;100.00;99588.69;4996280;28;20034;-80
2022/11/23 00:42:31;;;;;;;16.45;5.55;;;;;;;7.29;100.00;99589.50;4996294;28;20470;-80
2022/11/23 00:44:57;;;;;;;14.85;5.57;;;;;;;7.09;100.00;99560.91;4996017;28;20093;-80
2022/11/23 00:47:22;;;;;;;13.68;4.82;;;;;;;6.96;100.00;99538.72;4996029;28;20026;-80
2022/11/23 00:49:47;;;;;;;12.20;4.80;;;;;;;7.29;100.00;99592.09;4996146;28;20057;-82
2022/11/23 00:52:12;;;;;;;19.48;5.38;;;;;;;7.22;100.00;99585.72;4996046;28;20114;-81
2022/11/23 00:54:38;;;;;;;16.02;4.80;;;;;;;7.25;100.00;99586.31;4995968;28;20026;-81
2022/11/23 00:57:03;;;;;;;17.15;5.65;;;;;;;7.16;100.00;99571.53;4995890;28;20458;-81
2022/11/23 00:59:28;;;;;;;15.18;4.75;;;;;;;7.14;100.00;99574.22;4995727;28;20045;-80
2022/11/23 01:01:54;;;;;;;15.77;4.68;;;;;;;7.27;100.00;99591.34;4995137;28;20025;-81
2022/11/23 01:04:19;;;;;;;14.02;4.80;;;;;;;7.28;100.00;99598.16;4995885;28;20045;-81
2022/11/23 01:06:44;;;;;;;14.98;4.53;;;;;;;7.31;100.00;99597.94;5010480;28;20039;-81
2022/11/23 01:09:16;;;;;;;13.45;4.22;;;;;;;7.13;100.00;99569.19;4995388;28;20125;-81
2022/11/23 01:11:42;;;;;;;12.57;4.20;;;;;;;7.31;100.00;99605.63;4995712;28;20109;-81
2022/11/23 01:14:07;;;;;;;15.93;3.90;;;;;;;7.30;100.00;99591.97;4995577;28;20105;-81
2022/11/23 01:16:35;;;;;;;13.57;3.92;;;;;;;7.15;100.00;99572.47;4995357;28;20030;-82
2022/11/23 01:19:04;;;;;;;13.35;3.97;;;;;;;7.29;100.00;99608.31;4995713;28;20076;-81
2022/11/23 01:21:33;;;;;;;12.88;3.80;;;;;;;7.14;100.00;99589.63;4995503;28;20398;-81
2022/11/23 01:23:58;;;;;;;13.57;3.60;;;;;;;6.92;100.00;99558.66;4995336;28;20037;-81
2022/11/23 01:26:24;;;;;;;15.23;3.92;;;;;;;7.22;100.00;99606.25;4995235;28;20482;-81
2022/11/23 01:28:50;;;;;;;12.95;4.13;;;;;;;7.03;100.00;99575.88;4995433;28;20057;-81
2022/11/23 01:31:21;;;;;;;12.98;3.95;;;;;;;7.09;100.00;99596.84;4995187;28;20066;-81
2022/11/23 01:33:46;;;;;;;13.13;3.58;;;;;;;7.16;100.00;99615.19;4995304;28;20042;-81
2022/11/23 01:36:17;;;;;;;10.90;3.70;;;;;;;7.19;100.00;99618.38;4995637;28;20502;-80
2022/11/23 01:38:44;;;;;;;12.07;4.82;;;;;;;7.18;100.00;99631.34;4994986;28;20066;-80
2022/11/23 01:41:16;;;;;;;12.27;3.60;;;;;;;7.07;100.00;99614.06;4995340;28;20112;-79
2022/11/23 01:43:41;;;;;;;11.30;4.03;;;;;;;7.13;100.00;99628.25;4994834;28;20031;-80
2022/11/23 01:46:07;;;;;;;14.23;3.67;;;;;;;7.04;100.00;99614.28;4994799;28;20494;-80
2022/11/23 01:48:32;;;;;;;11.27;4.07;;;;;;;7.13;100.00;99631.63;5009931;28;20038;-81
2022/11/23 01:51:01;;;;;;;16.08;3.60;;;;;;;7.14;100.00;99630.69;4994981;28;20148;-81
2022/11/23 01:53:27;;;;;;;15.30;3.88;;;;;;;7.15;100.00;99629.78;4995119;28;20057;-81
2022/11/23 01:55:57;;;;;;;16.85;4.18;;;;;;;7.17;100.00;99625.34;4994789;28;20462;-81
2022/11/23 01:58:24;;;;;;;14.20;4.60;;;;;;;7.13;100.00;99610.28;4994671;28;20109;-81
2022/11/23 02:00:49;;;;;;;13.07;3.40;;;;;;;7.24;100.00;99630.91;4994586;28;20112;-80
2022/11/23 02:03:16;;;;;;;12.43;3.60;;;;;;;7.27;100.00;99635.81;4994587;28;20085;-80
2022/11/23 02:05:46;;;;;;;13.60;3.78;;;;;;;7.25;100.00;99629.97;4994671;28;20050;-81
2022/11/23 02:08:14;;;;;;;9.10;2.92;;;;;;;7.28;100.00;99634.09;4994570;28;20026;-81
2022/11/23 02:10:39;;;;;;;12.68;2.97;;;;;;;7.31;100.00;99646.72;4994657;28;20034;-81
2022/11/23 02:13:07;;;;;;;11.85;3.70;;;;;;;7.30;100.00;99645.06;4994320;28;20085;-80
2022/11/23 02:15:34;;;;;;;13.93;3.15;;;;;;;7.24;100.00;99636.03;4993942;28;20057;-81
2022/11/23 02:18:02;;;;;;;10.43;3.08;;;;;;;7.31;100.00;99652.66;4994184;28;20030;-80
2022/11/23 02:20:28;;;;;;;13.13;3.20;;;;;;;7.29;100.00;99644.25;4994361;28;20036;-81
2022/11/23 02:22:53;;;;;;;13.70;2.95;;;;;;;7.31;100.00;99659.56;4994316;28;20393;-80
2022/11/23 02:25:42;;;;;;;11.00;2.60;;;;;;;7.32;100.00;99649.16;4994060;28;20575;-80
2022/11/23 02:28:08;;;;;;;13.55;3.30;;;;;;;7.32;100.00;99649.16;4987757;28;20038;-81
2022/11/23 02:30:35;;;;;;;11.57;2.97;;;;;;;7.33;100.00;99643.09;4994187;28;20470;-81
2022/11/23 02:33:04;;;;;;;12.73;3.40;;;;;;;7.24;100.00;99632.66;4994045;28;20019;-81
2022/11/23 02:35:30;;;;;;;14.23;3.10;;;;;;;7.30;100.00;99637.38;4994073;28;20080;-80
2022/11/23 02:37:56;;;;;;;12.73;3.25;;;;;;;7.39;100.00;99647.03;4994175;28;20052;-81
2022/11/23 02:40:33;;;;;;;12.48;3.47;;;;;;;7.37;100.00;99643.72;4994087;28;20031;-82
2022/11/23 02:42:59;;;;;;;12.15;3.30;;;;;;;7.43;100.00;99653.56;4993971;28;20375;-81
2022/11/23 02:45:37;;;;;;;13.13;3.03;;;;;;;7.42;100.00;99657.88;4994089;28;20498;-81
2022/11/23 02:48:03;;;;;;;12.15;3.95;;;;;;;7.37;100.00;99647.09;4993597;28;20203;-82
2022/11/23 02:50:28;;;;;;;18.30;3.53;;;;;;;7.30;100.00;99638.19;4994014;28;20106;-81
2022/11/23 02:52:54;;;;;;;18.20;4.07;;;;;;;7.44;100.00;99662.91;4994035;28;20026;-81
2022/11/23 02:55:19;;;;;;;10.43;3.30;;;;;;;7.44;100.00;99660.34;4994010;28;20026;-81
2022/11/23 02:57:44;;;;;;;13.05;3.22;;;;;;;7.40;100.00;99646.09;4994015;28;20023;-81
2022/11/23 03:00:11;;;;;;;13.52;3.15;;;;;;;7.36;100.00;99642.06;4993900;28;20398;-82
2022/11/23 03:02:36;;;;;;;14.05;3.63;;;;;;;7.45;100.00;99662.00;4993491;28;20483;-82
2022/11/23 03:05:01;;;;;;;12.93;3.20;;;;;;;7.46;100.00;99661.88;4993775;28;20110;-81
2022/11/23 03:07:27;;;;;;;14.23;3.45;;;;;;;7.25;100.00;99624.84;4993852;28;20026;-79
2022/11/23 03:09:52;;;;;;;17.60;3.58;;;;;;;7.45;100.00;99657.66;4993877;28;20053;-81
2022/11/23 03:12:17;;;;;;;11.77;2.83;;;;;;;7.43;100.00;99662.09;4993832;28;20041;-82
2022/11/23 03:14:43;;;;;;;12.25;3.15;;;;;;;7.40;100.00;99654.63;4993705;28;20121;-81
2022/11/23 03:17:08;;;;;;;13.48;4.07;;;;;;;7.34;100.00;99649.88;4993613;28;20034;-81
2022/11/23 03:19:33;;;;;;;11.38;2.67;;;;;;;7.30;100.00;99640.75;4993624;28;20502;-81
2022/11/23 03:21:59;;;;;;;12.85;2.92;;;;;;;7.45;100.00;99669.69;4993508;28;20382;-81
2022/11/23 03:24:24;;;;;;;11.90;3.05;;;;;;;7.43;100.00;99666.41;4993757;28;20030;-82
2022/11/23 03:26:49;;;;;;;15.10;3.30;;;;;;;7.29;100.00;99635.72;4996833;28;20170;-81
2022/11/23 03:29:15;;;;;;;13.82;3.15;;;;;;;7.42;100.00;99662.22;5012613;28;20058;-82
2022/11/23 03:31:40;;;;;;;15.32;3.40;;;;;;;7.31;100.00;99651.84;5012562;28;20035;-81
2022/11/23 03:34:05;;;;;;;13.95;3.47;;;;;;;7.28;100.00;99641.81;4997210;28;20360;-82
2022/11/23 03:36:31;;;;;;;13.10;3.80;;;;;;;7.31;100.00;99660.38;4997219;28;20050;-81
2022/11/23 03:38:56;;;;;;;16.40;3.30;;;;;;;7.37;100.00;99671.97;4997429;28;20026;-82
2022/11/23 03:41:21;;;;;;;16.30;4.10;;;;;;;7.36;100.00;99671.13;4997336;28;20414;-82
2022/11/23 03:43:46;;;;;;;15.18;3.05;;;;;;;7.32;100.00;99664.59;4997384;28;20081;-82
2022/11/23 03:46:12;;;;;;;16.52;3.63;;;;;;;7.31;100.00;99670.66;4997333;28;20081;-81
2022/11/23 03:48:37;;;;;;;14.52;3.45;;;;;;;7.30;100.00;99663.06;4997039;28;20030;-81
2022/11/23 03:51:03;;;;;;;18.13;3.33;;;;;;;7.27;100.00;99670.94;5008789;28;20027;-82
2022/11/23 03:53:28;;;;;;;16.92;3.83;;;;;;;7.23;100.00;99661.81;4978148;28;20505;-82
2022/11/23 03:55:57;;;;;;;14.73;3.85;;;;;;;7.25;100.00;99672.78;4977970;28;20379;-82
2022/11/23 03:58:22;;;;;;;11.48;3.53;;;;;;;6.94;100.00;99626.09;4977829;28;20094;-82
2022/11/23 04:00:47;;;;;;;16.58;3.15;;;;;;;7.22;100.00;99673.00;4977753;28;20022;-81
2022/11/23 04:03:13;;;;;;;14.40;3.78;;;;;;;7.18;100.00;99668.09;4977263;28;20030;-82
2022/11/23 04:05:38;;;;;;;16.30;3.88;;;;;;;6.99;100.00;99641.19;4977249;28;20097;-82
2022/11/23 04:08:04;;;;;;;14.98;3.85;;;;;;;7.08;100.00;99655.94;4977429;28;20418;-81
2022/11/23 04:10:29;;;;;;;16.25;4.03;;;;;;;7.14;100.00;99674.34;4977556;28;20045;-81
2022/11/23 04:12:54;;;;;;;13.02;3.13;;;;;;;7.14;100.00;99673.53;4977540;28;20442;-81
2022/11/23 04:15:20;;;;;;;15.13;3.03;;;;;;;7.14;100.00;99678.66;4977410;28;20517;-81
2022/11/23 04:17:45;;;;;;;11.30;2.90;;;;;;;7.06;100.00;99668.06;4977189;28;20113;-82
2022/11/23 04:20:11;;;;;;;12.90;4.05;;;;;;;7.16;100.00;99679.38;4976991;28;20062;-79
2022/11/23 04:22:36;;;;;;;13.70;3.13;;;;;;;7.15;100.00;99668.28;4977054;28;20035;-81
2022/11/23 04:25:02;;;;;;;12.73;2.80;;;;;;;7.22;100.00;99671.25;4980937;28;20049;-82
2022/11/23 04:27:27;;;;;;;13.23;3.58;;;;;;;7.23;100.00;99677.22;4996612;28;20030;-81
2022/11/23 04:29:52;;;;;;;12.13;2.97;;;;;;;7.08;100.00;99645.69;4996489;28;20045;-81
2022/11/23 04:32:18;;;;;;;11.70;2.63;;;;;;;7.28;100.00;99677.75;4996291;28;20037;-81
2022/11/23 04:34:43;;;;;;;14.48;3.25;;;;;;;7.26;100.00;99679.56;4996155;28;20050;-81
2022/11/23 04:37:08;;;;;;;14.15;3.42;;;;;;;7.24;100.00;99673.72;4995366;28;20057;-81
2022/11/23 04:39:34;;;;;;;12.38;3.03;;;;;;;7.27;100.00;99674.34;4996160;28;20033;-81
2022/11/23 04:41:59;;;;;;;14.18;3.05;;;;;;;7.28;100.00;99675.19;4996489;28;20036;-81
2022/11/23 04:44:27;;;;;;;15.30;3.45;;;;;;;7.29;100.00;99666.56;4996376;28;20126;-81
2022/11/23 04:46:52;;;;;;;11.68;3.55;;;;;;;7.10;100.00;99644.69;4995865;28;20030;-82
2022/11/23 04:49:18;;;;;;;16.02;2.85;;;;;;;7.28;100.00;99670.03;5010943;28;20057;-82
2022/11/23 04:51:43;;;;;;;18.35;3.20;;;;;;;7.27;100.00;99682.03;4995840;28;20030;-78
2022/11/23 04:54:08;;;;;;;13.10;3.10;;;;;;;7.14;100.00;99652.97;4995913;28;20438;-82
2022/11/23 04:56:34;;;;;;;16.45;3.20;;;;;;;7.25;100.00;99673.63;4995995;28;20057;-81
2022/11/23 04:58:59;;;;;;;11.07;2.83;;;;;;;7.19;100.00;99674.88;4995804;28;20030;-82
2022/11/23 05:01:24;;;;;;;16.10;2.85;;;;;;;6.94;100.00;99628.66;4995944;28;20030;-81
2022/11/23 05:03:50;;;;;;;13.82;3.17;;;;;;;7.07;100.00;99654.31;4995752;28;20019;-81
2022/11/23 05:06:15;;;;;;;15.50;3.70;;;;;;;7.19;100.00;99666.34;4995703;28;20435;-81
2022/11/23 05:08:41;;;;;;;16.13;3.67;;;;;;;7.08;100.00;99648.25;4995595;28;20041;-82
2022/11/23 05:11:06;;;;;;;16.77;3.63;;;;;;;7.18;100.00;99657.81;4995665;28;20430;-82
2022/11/23 05:13:32;;;;;;;19.73;3.45;;;;;;;7.08;100.00;99637.97;4995643;28;20030;-81
2022/11/23 05:15:57;;;;;;;16.67;3.50;;;;;;;7.24;100.00;99658.31;4995595;28;20030;-81
2022/11/23 05:18:22;;;;;;;21.08;3.42;;;;;;;7.01;100.00;99632.47;4995477;28;20035;-81
2022/11/23 05:20:47;;;;;;;15.27;3.17;;;;;;;7.18;100.00;99662.16;4995364;28;20022;-80
2022/11/23 05:23:13;;;;;;;13.55;3.05;;;;;;;7.09;100.00;99663.56;4995414;28;20072;-79
2022/11/23 05:25:39;;;;;;;12.57;3.28;;;;;;;7.06;100.00;99674.03;4993049;28;20050;-80
2022/11/23 05:28:04;;;;;;;18.50;3.53;;;;;;;7.03;100.00;99669.09;4995192;28;20100;-81
2022/11/23 05:30:30;;;;;;;17.45;2.88;;;;;;;6.92;100.00;99657.91;4995249;28;20105;-81
2022/11/23 05:33:03;;;;;;;18.23;4.05;;;;;;;6.75;100.00;99636.75;4995175;28;20081;-80
2022/11/23 05:35:29;;;;;;;15.38;3.08;;;;;;;6.93;100.00;99668.06;4995040;28;20038;-82
2022/11/23 05:37:54;;;;;;;16.55;3.08;;;;;;;6.98;100.00;99671.19;4995034;28;20529;-82
2022/11/23 05:40:20;;;;;;;16.92;3.67;;;;;;;6.87;100.00;99656.47;4994882;28;20169;-81
2022/11/23 05:42:45;;;;;;;18.50;3.53;;;;;;;6.98;100.00;99678.88;4994965;28;20065;-82
2022/11/23 05:45:10;;;;;;;17.15;2.78;;;;;;;6.92;100.00;99670.75;4995016;28;20382;-82
2022/11/23 05:47:36;;;;;;;17.15;3.10;;;;;;;6.84;100.00;99648.97;4995033;28;20041;-83
2022/11/23 05:50:01;;;;;;;15.93;3.05;;;;;;;6.96;100.00;99678.13;4994570;28;20022;-82
2022/11/23 05:52:27;;;;;;;17.90;3.35;;;;;;;6.98;100.00;99675.47;4994889;28;20030;-82
2022/11/23 05:54:52;;;;;;;14.95;3.00;;;;;;;6.97;100.00;99684.09;4994452;28;20029;-82
2022/11/23 05:57:18;;;;;;;17.45;3.22;;;;;;;6.90;100.00;99666.53;4994787;28;20105;-82
2022/11/23 05:59:44;;;;;;;16.95;3.17;;;;;;;6.85;100.00;99668.59;4994969;28;20467;-82
2022/11/23 06:02:09;;;;;;;19.67;3.88;;;;;;;6.87;100.00;99666.72;4994929;28;20351;-81
2022/11/23 06:04:34;;;;;;;18.98;3.92;;;;;;;6.67;100.00;99633.03;4994657;28;20037;-82
2022/11/23 06:07:00;;;;;;;21.20;4.35;;;;;;;6.93;100.00;99685.22;4994458;28;20026;-81
2022/11/23 06:09:28;;;;;;;17.83;3.70;;;;;;;6.68;100.00;99644.94;4994269;28;20035;-80
2022/11/23 06:11:54;;;;;;;17.08;3.80;;;;;;;6.61;100.00;99647.13;4994428;28;20022;-82
2022/11/23 06:14:20;;;;;;;20.50;4.05;;;;;;;6.83;100.00;99682.44;4994303;28;20533;-82
2022/11/23 06:16:45;;;;;;;17.30;4.80;;;;;;;6.85;100.00;99686.53;4994587;28;20023;-81
2022/11/23 06:19:10;;;;;;;16.60;3.45;;;;;;;6.77;100.00;99673.38;4994343;28;20019;-81
2022/11/23 06:21:36;;;;;;;22.08;3.85;;;;;;;6.87;100.00;99681.31;4994194;28;20034;-80
2022/11/23 06:24:01;;;;;;;19.73;4.00;;;;;;;6.78;100.00;99671.63;4994197;28;20026;-81
2022/11/23 06:26:26;;;;;;;20.88;4.60;;;;;;;6.87;100.00;99687.25;4991838;28;20368;-82
2022/11/23 06:28:52;;;;;;;20.70;3.88;;;;;;;6.69;100.00;99662.00;4994102;28;20035;-80
2022/11/23 06:31:17;;;;;;;17.08;3.75;;;;;;;6.82;100.00;99670.53;4976658;28;20030;-80
2022/11/23 06:33:42;;;;;;;17.63;3.78;;;;;;;6.90;100.00;99681.13;4994254;28;20058;-80
2022/11/23 06:36:09;;;;;;;20.02;3.75;;;;;;;6.75;100.00;99666.72;4993962;28;20502;-80
2022/11/23 06:38:34;;;;;;;19.40;3.47;;;;;;;6.92;100.00;99689.53;4993845;28;20041;-79
2022/11/23 06:41:01;;;;;;;17.85;3.88;;;;;;;6.92;100.00;99694.66;4993763;28;20030;-81
2022/11/23 06:43:27;;;;;;;18.60;3.92;;;;;;;6.77;100.00;99675.13;4994240;28;20026;-78
2022/11/23 06:45:53;;;;;;;25.50;3.55;;;;;;;6.90;100.00;99696.53;4976432;28;20034;-79
2022/11/23 06:48:19;;;;;;;16.20;3.55;;;;;;;6.90;100.00;99699.09;4993932;28;20026;-80
2022/11/23 06:50:44;;;;;;;18.65;3.38;;;;;;;6.88;100.00;99694.06;4993244;28;20385;-79
2022/11/23 06:53:12;;;;;;;14.75;3.25;;;;;;;6.77;100.00;99677.69;4993721;28;20037;-80
2022/11/23 06:55:38;;;;;;;17.70;3.58;;;;;;;6.94;100.00;99704.81;4993750;28;20057;-81
2022/11/23 06:58:04;;;;;;;16.48;4.25;;;;;;;6.93;100.00;99708.31;4993651;28;20113;-80
2022/11/23 07:00:30;;;;;;;18.77;3.50;;;;;;;6.77;100.00;99687.97;4993304;28;20367;-79
2022/11/23 07:02:55;;;;;;;16.25;3.20;;;;;;;6.88;100.00;99704.31;4993760;28;20089;-83
2022/11/23 07:05:22;;;;;;;17.58;3.95;;;;;;;6.65;100.00;99679.31;4993860;28;20034;-82
2022/11/23 07:07:47;;;;;;;16.38;3.65;;;;;;;6.86;100.00;99729.25;4993492;28;20030;-81
2022/11/23 07:10:13;;;;;;;18.50;4.25;;;;;;;6.82;100.00;99714.16;4993607;28;20412;-79
2022/11/23 07:12:39;;;;;;;15.85;3.25;;;;;;;6.80;100.00;99726.28;4993595;28;20026;-80
2022/11/23 07:15:05;;;;;;;18.40;3.75;;;;;;;6.81;100.00;99730.47;4993727;28;20030;-79
2022/11/23 07:17:30;;;;;;;19.80;4.22;;;;;;;6.70;100.00;99718.34;4993539;28;20022;-80
2022/11/23 07:19:56;;;;;;;20.13;3.25;;;;;;;6.75;100.00;99730.88;4993633;28;20038;-80
2022/11/23 07:22:21;;;;;;;17.85;3.28;;;;;;;6.52;100.00;99712.66;4993225;28;20097;-80
2022/11/23 07:24:47;;;;;;;13.35;3.15;;;;;;;6.61;100.00;99731.75;4993573;28;20414;-80
2022/11/23 07:27:12;;;;;;;18.13;3.38;;;;;;;6.55;100.00;99719.31;4993357;28;20042;-80
2022/11/23 07:29:37;;;;;;;14.02;2.63;;;;;;;6.71;100.00;99747.38;4993410;28;20041;-81
2022/11/23 07:32:03;;;;;;;14.65;2.90;;;;;;;6.64;100.00;99738.44;4991888;28;20038;-81
2022/11/23 07:34:28;;;;;;;18.30;3.03;;;;;;;6.70;100.00;99748.31;4993422;28;20065;-80
2022/11/23 07:36:54;;;;;;;15.45;3.03;;;;;;;6.71;100.00;99749.94;4993467;28;20481;-81
2022/11/23 07:39:19;;;;;;;16.50;3.33;;;;;;;6.73;100.00;99754.06;4993431;28;20022;-81
2022/11/23 07:41:47;;;;;;;23.85;3.08;;;;;;;6.75;100.00;99759.91;4993330;28;20398;-81
2022/11/23 07:44:14;;;;;;;14.70;2.47;;;;;;;6.73;100.00;99761.75;4993662;28;20070;-80
2022/11/23 07:46:39;;;;;;;19.48;3.38;;;;;;;6.66;100.00;99765.63;4993406;28;20446;-79
2022/11/23 07:49:04;;;;;;;14.18;3.22;;;;;;;6.56;100.00;99765.38;4993464;28;20113;-80
2022/11/23 07:51:30;;;;;;;20.95;3.85;;;;;;;6.48;100.00;99767.59;4993526;28;20038;-80
2022/11/23 07:53:56;;;;;;;16.55;3.15;;;;;;;6.42;100.00;99770.56;4993213;28;20022;-80
2022/11/23 07:56:22;;;;;;;12.35;2.65;;;;;;;6.38;100.00;99773.41;4993228;28;20069;-81
2022/11/23 07:58:47;;;;;;;18.27;3.20;;;;;;;6.21;100.00;99756.53;4993370;28;20031;-81
2022/11/23 08:01:17;;;;;;;19.83;3.33;;;;;;;6.30;100.00;99784.97;4993262;28;20065;-81
2022/11/23 08:03:44;;;;;;;17.60;4.28;;;;;;;6.01;100.00;99738.06;4993345;28;20023;-81
2022/11/23 08:06:09;;;;;;;15.40;3.30;;;;;;;6.26;100.00;99780.13;4993318;28;20035;-81
2022/11/23 08:08:35;;;;;;;11.25;2.55;;;;;;;6.06;100.00;99747.22;4993055;28;20029;-81
2022/11/23 08:11:00;;;;;;;13.23;2.90;;;;;;;6.24;100.00;99775.09;4993293;28;20022;-78
2022/11/23 08:13:26;;;;;;;13.02;3.53;;;;;;;6.22;100.00;99783.81;4995096;28;20076;-77
2022/11/23 08:15:51;;;;;;;15.13;2.75;;;;;;;6.25;100.00;99779.31;4994194;28;20474;-81
2022/11/23 08:18:16;;;;;;;13.02;3.42;;;;;;;6.23;100.00;99781.16;4996792;28;20073;-80
2022/11/23 08:20:42;;;;;;;17.63;3.45;;;;;;;6.23;100.00;99785.44;4996479;28;20026;-81
2022/11/23 08:23:07;;;;;;;15.65;2.75;;;;;;;6.23;100.00;99781.16;4996369;28;20394;-80
2022/11/23 08:25:32;;;;;;;14.40;3.00;;;;;;;6.11;100.00;99761.41;4996029;28;20141;-82
2022/11/23 08:27:59;;;;;;;15.40;2.70;;;;;;;6.10;100.00;99756.38;4996191;28;20135;-78
2022/11/23 08:30:26;;;;;;;14.38;2.85;;;;;;;6.26;100.00;99783.50;4996006;28;20038;-81
2022/11/23 08:32:51;;;;;;;17.30;3.08;;;;;;;6.27;100.00;99780.03;4996341;28;20026;-79
2022/11/23 08:35:17;;;;;;;16.23;2.92;;;;;;;6.27;100.00;99782.59;4996411;28;20405;-78
2022/11/23 08:37:42;;;;;;;15.90;2.95;;;;;;;6.28;100.00;99789.34;4996200;28;20158;-80
2022/11/23 08:40:08;;;;;;;14.48;2.70;;;;;;;6.25;100.00;99778.47;4996371;28;20034;-79
2022/11/23 08:42:33;;;;;;;11.98;3.30;;;;;;;6.17;100.00;99761.00;4994967;28;20062;-78
2022/11/23 08:44:59;;;;;;;12.70;2.40;;;;;;;6.33;100.00;99794.22;4996432;28;20031;-79
2022/11/23 08:47:25;;;;;;;12.50;3.05;;;;;;;6.30;100.00;99795.25;4996633;28;20104;-79
2022/11/23 08:49:50;;;;;;;13.98;2.78;;;;;;;6.36;100.00;99794.03;4995957;28;20034;-77
2022/11/23 08:52:16;;;;;;;11.73;2.72;;;;;;;6.32;100.00;99777.19;4996025;28;20080;-78
2022/11/23 08:54:41;;;;;;;13.38;2.92;;;;;;;6.41;100.00;99786.06;4995993;28;20386;-76
2022/11/23 08:57:06;;;;;;;14.77;2.95;;;;;;;6.38;100.00;99775.97;4995891;28;20034;-79
2022/11/23 08:59:33;;;;;;;16.58;3.53;;;;;;;6.26;100.00;99757.88;4995682;28;20058;-77
2022/11/23 09:01:58;;;;;;;18.33;3.58;;;;;;;6.15;100.00;99728.69;4995865;28;20172;-79
2022/11/23 09:04:26;;;;;;;13.35;3.15;;;;;;;6.47;100.00;99777.97;4995666;28;20525;-77
2022/11/23 09:06:51;;;;;;;13.43;2.95;;;;;;;6.23;100.00;99741.88;4995782;28;20064;-77
2022/11/23 09:09:17;;;;;;;13.90;2.90;;;;;;;6.50;100.00;99777.78;4995507;28;20073;-76
2022/11/23 09:11:42;;;;;;;15.52;3.35;;;;;;;6.51;100.00;99774.31;4995391;28;20030;-77
2022/11/23 09:14:07;;;;;;;17.30;3.65;;;;;;;6.52;100.00;99781.06;4995512;28;20176;-78
2022/11/23 09:16:33;;;;;;;18.95;3.55;;;;;;;6.44;100.00;99761.03;4995432;28;20056;-79
2022/11/23 09:18:58;;;;;;;14.02;3.03;;;;;;;6.56;100.00;99772.25;4994324;28;20105;-79
2022/11/23 09:21:28;;;;;;;17.23;3.35;;;;;;;6.45;100.00;99746.47;4995346;28;20022;-80
2022/11/23 09:23:53;;;;;;;16.75;3.13;;;;;;;6.48;100.00;99754.78;4994924;28;20382;-80
2022/11/23 09:26:19;;;;;;;15.32;2.80;;;;;;;6.57;100.00;99754.19;4994978;28;20056;-80
2022/11/23 09:28:44;;;;;;;13.90;2.45;;;;;;;6.64;99.54;99761.50;4995285;28;20153;-79
2022/11/23 09:31:09;;;;;;;21.00;3.63;;;;;;;6.49;99.42;99735.09;4995248;28;20026;-79
2022/11/23 09:33:35;;;;;;;15.85;3.28;;;;;;;6.45;98.32;99725.94;4995105;28;20065;-76
2022/11/23 09:36:02;;;;;;;17.42;2.78;;;;;;;6.56;99.05;99747.44;4995138;28;20026;-81
2022/11/23 09:38:27;;;;;;;12.77;3.55;;;;;;;6.69;99.94;99757.75;4995369;28;20037;-78
2022/11/23 09:41:17;;;;;;;12.75;3.08;;;;;;;6.70;99.58;99756.81;4995001;28;20034;-80
2022/11/23 09:43:48;;;;;;;11.95;3.22;;;;;;;6.67;98.58;99733.91;4995146;28;20027;-79
2022/11/23 09:46:39;;;;;;;14.65;2.92;;;;;;;6.66;98.49;99729.72;4995101;28;20030;-78
2022/11/23 09:49:11;;;;;;;17.38;3.10;;;;;;;6.72;97.83;99738.75;4995013;28;20051;-77
2022/11/23 09:51:39;;;;;;;12.05;3.22;;;;;;;6.63;97.79;99717.09;4995016;28;20030;-79
2022/11/23 09:54:31;;;;;;;14.80;2.95;;;;;;;6.81;97.34;99740.75;4994755;28;20033;-78
2022/11/23 09:56:57;;;;;;;16.15;3.13;;;;;;;6.87;97.61;99742.88;4994473;28;20487;-78
2022/11/23 09:59:28;;;;;;;14.27;2.50;;;;;;;6.86;96.81;99729.25;4994766;28;20030;-77
2022/11/23 10:01:54;;;;;;;13.65;3.28;;;;;;;6.86;96.80;99728.41;4994836;28;20034;-79
2022/11/23 10:04:19;;;;;;;14.77;2.53;;;;;;;6.78;96.03;99705.00;4994729;28;20030;-78
2022/11/23 10:06:53;;;;;;;12.10;2.60;;;;;;;6.86;95.77;99721.53;4994580;28;20054;-78
2022/11/23 10:09:40;;;;;;;14.30;2.47;;;;;;;6.73;96.81;99696.78;4994576;28;20022;-78
2022/11/23 10:12:29;;;;;;;13.90;3.22;;;;;;;6.86;96.29;99721.53;4993218;28;20089;-79
2022/11/23 10:15:13;;;;;;;14.13;2.78;;;;;;;6.89;95.62;99718.78;4994432;28;20023;-79
2022/11/23 10:18:02;;;;;;;14.40;2.95;;;;;;;6.89;96.64;99708.53;4994698;28;20030;-80
2022/11/23 10:20:51;;;;;;;12.10;2.60;;;;;;;6.90;96.71;99702.47;4994580;28;20018;-79
2022/11/23 10:23:38;;;;;;;14.98;2.97;;;;;;;6.77;96.71;99680.25;4994275;28;20080;-78
2022/11/23 10:26:03;;;;;;;13.45;2.50;;;;;;;6.98;95.56;99708.81;4994126;28;20062;-78
2022/11/23 10:28:31;;;;;;;10.55;2.35;;;;;;;7.02;95.29;99700.84;4994120;28;20065;-78
2022/11/23 10:31:18;;;;;;;13.38;2.20;;;;;;;7.04;95.34;99704.13;4994349;28;20022;-78
2022/11/23 10:33:57;;;;;;;15.55;2.65;;;;;;;7.03;95.48;99704.22;4994200;28;20038;-78
2022/11/23 10:36:22;;;;;;;8.95;2.10;;;;;;;7.00;96.11;99683.91;4993185;28;20044;-79
2022/11/23 10:38:53;;;;;;;17.10;3.00;;;;;;;7.13;96.21;99707.81;5009221;28;20117;-78
2022/11/23 10:41:19;;;;;;;11.15;2.42;;;;;;;7.10;94.15;99690.06;4994175;28;20039;-78
2022/11/23 10:43:51;;;;;;;10.23;2.65;;;;;;;7.16;94.50;99700.72;4993963;28;20022;-78
2022/11/23 10:46:36;;;;;;;8.52;2.38;;;;;;;7.27;95.46;99704.31;4994102;28;20026;-77
2022/11/23 10:49:22;;;;;;;11.60;2.88;;;;;;;7.05;94.16;99658.72;4992565;28;20501;-78
2022/11/23 10:51:50;;;;;;;14.40;2.50;;;;;;;7.36;94.31;99704.53;4993987;28;20379;-78
2022/11/23 10:54:39;;;;;;;13.23;2.35;;;;;;;7.29;94.29;99682.78;4994046;28;20027;-77
2022/11/23 10:57:27;;;;;;;14.45;2.67;;;;;;;7.44;94.30;99696.31;4993790;28;20029;-78
2022/11/23 10:59:59;;;;;;;14.82;2.65;;;;;;;7.47;94.51;99689.22;4984583;28;20035;-77
2022/11/23 11:02:25;;;;;;;10.88;2.25;;;;;;;7.53;93.35;99685.41;4994205;28;20035;-78
2022/11/23 11:05:29;;;;;;;12.20;2.17;;;;;;;7.58;93.91;99685.09;4993702;28;20030;-79
2022/11/23 11:07:57;;;;;;;12.85;1.73;;;;;;;7.66;93.13;99688.75;4993725;28;20085;-78
2022/11/23 11:10:36;;;;;;;13.65;2.38;;;;;;;7.82;92.35;99669.72;4993589;28;20544;-78
2022/11/23 11:13:02;;;;;;;8.13;2.03;;;;;;;7.98;91.32;99668.56;4993881;28;20100;-78
2022/11/23 11:15:27;;;;;;;11.45;2.15;;;;;;;7.80;89.96;99625.34;4993842;28;20054;-79
2022/11/23 11:17:57;;;;;;;11.63;2.05;;;;;;;8.06;90.42;99655.13;5007953;28;20062;-75
2022/11/23 11:20:32;;;;;;;7.28;1.80;;;;;;;7.96;90.47;99642.13;4975031;28;20569;-78
2022/11/23 11:23:16;;;;;;;13.20;2.20;;;;;;;8.05;90.61;99656.06;4974544;28;20106;-78
2022/11/23 11:25:42;;;;;;;12.95;2.63;;;;;;;8.12;89.65;99659.84;4974405;28;20113;-78
2022/11/23 11:28:33;;;;;;;9.52;1.95;;;;;;;8.13;89.93;99665.81;4982302;28;20043;-78